createdAt,value
2019-05-22T00:09:28.936Z,94179.00
2019-05-22T00:19:30.889Z,94172.72
2019-05-22T00:29:33.241Z,94174.58
2019-05-22T00:39:34.884Z,94175.09
2019-05-22T00:49:39.446Z,94175.72
2019-05-22T00:59:45.548Z,94176.38
2019-05-22T01:09:50.724Z,94172.94
2019-05-22T01:19:54.183Z,94174.94
2019-05-22T01:29:56.515Z,94183.83
2019-05-22T01:40:02.042Z,94197.41
2019-05-22T01:50:05.983Z,94193.63
2019-05-22T02:00:08.928Z,94194.09
2019-05-22T02:10:31.241Z,94203.06
2019-05-22T02:20:33.200Z,94203.59
2019-05-22T02:30:35.381Z,94208.06
2019-05-22T02:40:41.939Z,94215.95
2019-05-22T02:50:46.077Z,94213.22
2019-05-22T03:00:58.539Z,94217.23
2019-05-22T03:11:02.360Z,94211.11
2019-05-22T03:21:04.740Z,94213.75
2019-05-22T03:31:08.281Z,94218.55
2019-05-22T03:41:12.318Z,94212.51
2019-05-22T03:51:17.751Z,94213.42
2019-05-22T04:01:21.206Z,94207.21
2019-05-22T04:11:28.934Z,94215.17
2019-05-22T04:21:30.576Z,94226.28
2019-05-22T04:31:59.545Z,94241.45
2019-05-22T04:42:01.588Z,94242.74
2019-05-22T04:52:03.847Z,94238.41
2019-05-22T05:02:06.975Z,94245.00
2019-05-22T05:12:09.010Z,94256.14
2019-05-22T05:22:16.578Z,94257.38
2019-05-22T05:32:18.411Z,94262.55
2019-05-22T05:42:19.878Z,94269.44
2019-05-22T05:52:23.469Z,94277.95
2019-05-22T06:02:25.255Z,94292.67
2019-05-22T06:12:26.902Z,94291.80
2019-05-22T06:22:28.750Z,94301.64
2019-05-22T06:32:55.217Z,94307.70
2019-05-22T06:43:24.093Z,94307.06
2019-05-22T06:53:26.116Z,94312.78
2019-05-22T07:03:28.100Z,94311.26
2019-05-22T07:13:30.531Z,94310.23
2019-05-22T07:23:33.955Z,94310.11
2019-05-22T07:33:35.602Z,94307.55
2019-05-22T07:43:41.221Z,94304.63
2019-05-22T07:53:40.799Z,94316.38
2019-05-22T08:03:44.239Z,94314.63
2019-05-22T08:13:46.575Z,94312.23
2019-05-22T08:23:48.910Z,94296.45
2019-05-22T08:33:51.205Z,94302.67
2019-05-22T08:44:14.370Z,94293.12
2019-05-22T08:53:58.095Z,94293.89
2019-05-22T09:04:00.153Z,94289.23
2019-05-22T09:14:02.031Z,94298.19
2019-05-22T09:24:07.910Z,94289.63
2019-05-22T09:34:09.829Z,94301.06
2019-05-22T09:44:15.321Z,94304.64
2019-05-22T09:54:15.846Z,94305.09
2019-05-22T10:04:17.511Z,94319.20
2019-05-22T10:14:21.140Z,94317.95
2019-05-22T10:24:23.132Z,94323.84
2019-05-22T10:34:27.553Z,94338.56
2019-05-22T10:44:29.529Z,94329.78
2019-05-22T10:54:31.483Z,94330.73
2019-05-22T11:04:35.163Z,94314.50
2019-05-22T11:14:37.321Z,94306.14
2019-05-22T11:24:39.229Z,94296.19
2019-05-22T11:34:40.996Z,94294.06
2019-05-22T11:44:42.724Z,94296.44
2019-05-22T11:54:44.562Z,94296.45
2019-05-22T12:04:48.728Z,94287.30
2019-05-22T12:14:50.466Z,94294.86
2019-05-22T12:24:52.281Z,94293.80
2019-05-22T12:34:54.326Z,94287.08
2019-05-22T12:44:56.317Z,94279.06
2019-05-22T12:54:59.648Z,94282.27
2019-05-22T13:05:01.303Z,94275.86
2019-05-22T13:15:09.964Z,94272.17
2019-05-22T13:25:10.229Z,94281.95
2019-05-22T13:35:14.506Z,94276.23
2019-05-22T13:45:28.569Z,94282.70
2019-05-22T13:55:20.745Z,94284.37
2019-05-22T14:05:23.266Z,94289.62
2019-05-22T14:15:25.108Z,94281.19
2019-05-22T14:25:27.438Z,94288.91
2019-05-22T14:35:46.990Z,94289.42
2019-05-22T14:45:35.624Z,94282.09
2019-05-22T14:55:38.224Z,94294.06
2019-05-22T15:05:40.112Z,94286.56
2019-05-22T15:15:41.842Z,94291.46
2019-05-22T15:25:43.689Z,94288.66
2019-05-22T15:35:45.649Z,94289.20
2019-05-22T15:45:47.788Z,94291.66
2019-05-22T15:55:50.145Z,94295.80
2019-05-22T16:05:52.960Z,94298.02
2019-05-22T16:15:56.269Z,94300.86
2019-05-22T16:25:58.669Z,94292.02
2019-05-22T16:36:05.101Z,94293.84
2019-05-22T16:46:09.365Z,94293.00
2019-05-22T16:56:11.302Z,94304.59
2019-05-22T17:06:13.133Z,94312.57
2019-05-22T17:16:15.551Z,94314.64
2019-05-22T17:26:17.337Z,94320.09
2019-05-22T17:36:20.460Z,94333.17
2019-05-22T17:46:23.303Z,94338.55
2019-05-22T17:56:25.467Z,94346.99
2019-05-22T18:06:27.357Z,94343.30
2019-05-22T18:16:30.418Z,94343.63
2019-05-22T18:26:32.169Z,94355.31
2019-05-22T18:36:33.940Z,94372.47
2019-05-22T18:46:35.403Z,94381.55
2019-05-22T18:56:36.980Z,94385.95
2019-05-22T19:06:38.772Z,94395.91
2019-05-22T19:16:40.351Z,94393.17
2019-05-22T19:26:43.596Z,94410.09
2019-05-22T19:36:45.071Z,94421.31
2019-05-22T19:46:47.728Z,94425.83
2019-05-22T19:56:49.779Z,94431.14
2019-05-22T20:06:51.722Z,94440.56
2019-05-22T20:16:54.320Z,94453.63
2019-05-22T20:26:56.070Z,94451.22
2019-05-22T20:36:58.006Z,94447.73
2019-05-22T20:47:02.788Z,94457.64
2019-05-22T20:57:05.316Z,94469.20
2019-05-22T21:07:09.368Z,94481.08
2019-05-22T21:17:11.546Z,94484.92
2019-05-22T21:27:13.760Z,94483.86
2019-05-22T21:37:17.292Z,94481.00
2019-05-22T21:47:19.578Z,94486.93
2019-05-22T21:57:22.325Z,94480.67
2019-05-22T22:07:25.841Z,94484.22
2019-05-22T22:17:29.221Z,94485.45
2019-05-22T22:27:31.785Z,94483.61
2019-05-22T22:37:35.221Z,94496.73
2019-05-22T22:47:39.041Z,94491.06
2019-05-22T22:57:41.560Z,94493.41
2019-05-22T23:07:43.491Z,94494.39
2019-05-22T23:17:47.044Z,94493.61
2019-05-22T23:27:50.686Z,94487.56
2019-05-22T23:37:52.367Z,94493.49
2019-05-22T23:48:02.913Z,94501.48
2019-05-22T23:58:06.835Z,94495.05
